Terminal Aerodrome Forecast
Issued by NWS

Home | Current Version | Previous Version | Graphics & Text | Print | Product List | Glossary On
Versions: 1 2 3 4 5 6 7 8 9 10 11 12 13 14 15 16 17 18 19 20 21 22
216
FTUS43 KICT 220522
TAFRSL
TAF
KRSL 220522Z 2206/2306 12015G22KT P6SM BKN025
      TEMPO 2206/2208 BKN035
     FM220900 14015G22KT 5SM BR OVC012
     FM221700 16019G26KT P6SM OVC025=

USA.gov is the U.S. government's official web portal to all federal, state and local government web resources and services.